Pine Prairie, Louisiana
Current Conditions -  °F | °C
As of 10:15 AM on Monday 24 Nov 2014 (Local Time) from KACP Reporting Station
Clear Clear  
Wind Chill: 58°   Ceiling: Unl
Heat Index: 58°   Visibility: 10mi
Dew Point: 44°   Wind: 7mph
Humidity: 61%   Direction: 330°NNW
Pressure: 30.01"   Gusts: NA
Location:  30.78°N, 92.43°W
Report Text: KACP 241615Z AUTO 33006KT 10SM CLR 14/07 A3001 RMK AO2 T01430068
Loading
Personal Weather Stations






























Interactive Weather Map New forecast layout! Learn more

10-Day Weather Forecast

Advertisements
Track Severe Weather on mobile